Time;durP1;ratioP1;P1;durP2;ratioP2;P2;SDS_P1;SDS_P2;PMS_P1;PMS_P2;Temp;Humidity;BMP_temperature;BMP_pressure;BME280_temperature;BME280_humidity;BME280_pressure;Samples;Min_cycle;Max_cycle;Signal;HPM_P1;HPM_P2
2023/08/25 00:00:29;;;;;;;56.93;43.53;;;19.20;99.90;;;;;;5029222;28;20037;-71
2023/08/25 00:02:55;;;;;;;55.03;41.43;;;19.30;99.90;;;;;;5025959;28;20052;-71
2023/08/25 00:05:20;;;;;;;52.17;40.63;;;19.30;99.90;;;;;;5025495;28;20082;-71
2023/08/25 00:07:46;;;;;;;54.03;41.40;;;19.30;99.90;;;;;;5024699;28;20339;-71
2023/08/25 00:10:13;;;;;;;58.30;41.97;;;19.30;99.90;;;;;;5010185;28;20037;-72
2023/08/25 00:12:39;;;;;;;53.20;42.07;;;19.40;99.90;;;;;;5023451;28;20041;-72
2023/08/25 00:15:05;;;;;;;51.30;40.53;;;19.40;99.90;;;;;;5028734;28;20091;-72
2023/08/25 00:17:32;;;;;;;56.73;42.43;;;19.40;99.90;;;;;;5029592;28;20040;-72
2023/08/25 00:19:59;;;;;;;54.33;40.60;;;19.40;99.90;;;;;;5027965;28;20041;-72
2023/08/25 00:22:24;;;;;;;50.03;39.20;;;19.40;99.90;;;;;;5025661;28;20509;-71
2023/08/25 00:24:55;;;;;;;58.70;42.17;;;19.30;99.90;;;;;;5028050;28;20122;-71
2023/08/25 00:27:21;;;;;;;55.00;40.40;;;19.20;99.90;;;;;;5023487;28;20126;-71
2023/08/25 00:29:47;;;;;;;54.10;41.60;;;19.20;99.90;;;;;;5025595;28;20080;-72
2023/08/25 00:32:13;;;;;;;53.23;40.47;;;19.10;99.90;;;;;;5027732;28;20041;-72
2023/08/25 00:34:39;;;;;;;57.00;41.00;;;19.10;99.90;;;;;;5029565;28;20108;-72
2023/08/25 00:37:05;;;;;;;59.23;41.83;;;19.00;99.90;;;;;;5028878;28;20044;-71
2023/08/25 00:39:31;;;;;;;56.53;40.70;;;19.00;99.90;;;;;;5027637;28;20076;-71
2023/08/25 00:41:57;;;;;;;61.17;41.93;;;19.00;99.90;;;;;;5009419;28;20067;-71
2023/08/25 00:44:22;;;;;;;59.37;42.63;;;18.90;99.90;;;;;;5029748;28;20040;-71
2023/08/25 00:46:49;;;;;;;57.10;42.87;;;18.90;99.90;;;;;;5033154;28;20452;-71
2023/08/25 00:49:15;;;;;;;58.30;41.30;;;18.80;99.90;;;;;;5025486;28;20072;-71
2023/08/25 00:51:40;;;;;;;61.87;43.50;;;18.80;99.90;;;;;;5033555;28;20041;-71
2023/08/25 00:54:07;;;;;;;63.27;42.00;;;18.80;99.90;;;;;;5030664;28;20051;-71
2023/08/25 00:56:33;;;;;;;65.27;42.93;;;18.70;99.90;;;;;;5029303;28;20039;-71
2023/08/25 00:58:59;;;;;;;63.37;42.93;;;18.60;99.90;;;;;;5016188;28;20048;-71
2023/08/25 01:01:27;;;;;;;62.70;41.43;;;18.60;99.90;;;;;;5030326;28;20390;-71
2023/08/25 01:03:52;;;;;;;62.50;42.50;;;18.50;99.90;;;;;;5029920;28;20052;-71
2023/08/25 01:06:19;;;;;;;66.90;43.27;;;18.50;99.90;;;;;;5030270;28;20044;-71
2023/08/25 01:08:45;;;;;;;66.20;43.50;;;18.40;99.90;;;;;;5029069;28;20091;-71
2023/08/25 01:11:36;;;;;;;63.50;42.27;;;18.40;99.90;;;;;;5026187;28;20037;-72
2023/08/25 01:14:15;;;;;;;67.20;44.87;;;18.30;99.90;;;;;;5010245;28;20049;-71
2023/08/25 01:16:57;;;;;;;67.97;44.37;;;18.30;99.90;;;;;;5024102;28;20492;-71
2023/08/25 01:19:40;;;;;;;77.93;45.47;;;18.30;99.90;;;;;;5028063;28;20103;-71
2023/08/25 01:22:13;;;;;;;72.73;45.30;;;18.20;99.90;;;;;;5029474;28;20557;-71
2023/08/25 01:24:40;;;;;;;77.63;46.70;;;18.30;99.90;;;;;;5033061;28;20433;-71
2023/08/25 01:27:07;;;;;;;75.30;44.90;;;18.30;99.90;;;;;;5032375;28;20041;-71
2023/08/25 01:29:34;;;;;;;68.93;43.17;;;18.30;99.90;;;;;;5033171;28;20094;-72
2023/08/25 01:32:00;;;;;;;76.87;47.13;;;18.30;99.90;;;;;;5028342;28;20124;-71
2023/08/25 01:34:26;;;;;;;75.50;44.47;;;18.30;99.90;;;;;;5010558;28;20144;-71
2023/08/25 01:37:07;;;;;;;63.93;42.57;;;18.40;99.90;;;;;;5033449;28;20053;-71
2023/08/25 01:39:35;;;;;;;72.77;45.07;;;18.40;99.90;;;;;;5028736;28;20050;-71
2023/08/25 01:42:05;;;;;;;73.30;42.93;;;18.30;99.90;;;;;;5033296;28;20625;-71
2023/08/25 01:44:34;;;;;;;71.80;44.20;;;18.40;99.90;;;;;;5032386;28;20049;-71
2023/08/25 01:47:06;;;;;;;73.43;43.53;;;18.40;99.90;;;;;;5025415;28;20045;-71
2023/08/25 01:49:32;;;;;;;70.10;42.67;;;18.40;99.90;;;;;;5032224;28;20118;-71
2023/08/25 01:52:02;;;;;;;77.27;45.13;;;18.40;99.90;;;;;;5029598;28;20052;-71
2023/08/25 01:54:27;;;;;;;75.53;45.50;;;18.40;99.90;;;;;;5029908;28;20032;-71
2023/08/25 01:56:53;;;;;;;64.90;41.67;;;18.40;99.90;;;;;;5029852;28;20024;-71
2023/08/25 01:59:19;;;;;;;76.13;45.40;;;18.40;99.90;;;;;;5029967;28;20044;-71
2023/08/25 02:01:45;;;;;;;77.97;43.43;;;18.30;99.90;;;;;;5032571;28;20052;-71
2023/08/25 02:04:10;;;;;;;70.27;42.90;;;18.30;99.90;;;;;;5032707;28;20048;-72
2023/08/25 02:06:36;;;;;;;70.87;42.37;;;18.20;99.90;;;;;;5032504;28;20048;-71
2023/08/25 02:09:03;;;;;;;65.90;41.60;;;18.20;99.90;;;;;;5032616;28;20033;-71
2023/08/25 02:11:28;;;;;;;70.77;43.67;;;18.20;99.90;;;;;;5022075;28;20037;-71
2023/08/25 02:13:54;;;;;;;60.30;39.77;;;18.20;99.90;;;;;;5031455;28;20052;-71
2023/08/25 02:16:20;;;;;;;65.83;40.57;;;18.10;99.90;;;;;;5015463;28;20433;-71
2023/08/25 02:18:45;;;;;;;68.40;41.67;;;18.10;99.90;;;;;;5032397;28;20045;-71
2023/08/25 02:21:11;;;;;;;72.00;42.50;;;18.10;99.90;;;;;;5023341;28;20271;-71
2023/08/25 02:23:37;;;;;;;71.27;42.93;;;18.10;99.90;;;;;;5030338;28;20052;-72
2023/08/25 02:26:02;;;;;;;75.93;46.17;;;18.10;99.90;;;;;;5024948;28;20124;-71
2023/08/25 02:28:28;;;;;;;76.60;45.20;;;18.10;99.90;;;;;;5029596;28;20393;-71
2023/08/25 02:30:55;;;;;;;74.30;44.87;;;18.10;99.90;;;;;;5028802;28;20049;-71
2023/08/25 02:33:21;;;;;;;72.90;44.93;;;18.20;99.90;;;;;;5011364;28;20486;-71
2023/08/25 02:35:46;;;;;;;71.00;42.57;;;18.20;99.90;;;;;;5021063;28;20092;-71
2023/08/25 02:38:12;;;;;;;78.47;44.73;;;18.20;99.90;;;;;;5019412;28;20049;-71
2023/08/25 02:40:38;;;;;;;73.77;43.10;;;18.20;99.90;;;;;;5032007;28;20048;-71
2023/08/25 02:43:05;;;;;;;75.77;43.77;;;18.20;99.90;;;;;;5028690;28;20073;-71
2023/08/25 02:45:32;;;;;;;83.60;45.17;;;18.20;99.90;;;;;;5025446;28;20041;-71
2023/08/25 02:47:58;;;;;;;79.43;46.27;;;18.20;99.90;;;;;;5026950;28;20052;-71
2023/08/25 02:50:24;;;;;;;76.63;44.93;;;18.20;99.90;;;;;;5028831;28;20045;-71
2023/08/25 02:52:50;;;;;;;67.80;42.10;;;18.20;99.90;;;;;;5012134;28;20033;-71
2023/08/25 02:55:18;;;;;;;73.90;45.80;;;18.20;99.90;;;;;;5012758;28;20033;-71
2023/08/25 02:57:45;;;;;;;72.70;43.97;;;18.20;99.90;;;;;;5026458;28;20035;-71
2023/08/25 03:00:17;;;;;;;74.60;45.80;;;18.20;99.90;;;;;;5031578;28;20037;-71
2023/08/25 03:02:43;;;;;;;66.10;41.40;;;18.20;99.90;;;;;;5031047;28;20110;-72
2023/08/25 03:05:10;;;;;;;78.20;44.97;;;18.30;99.90;;;;;;5014023;28;20091;-71
2023/08/25 03:07:36;;;;;;;71.13;43.60;;;18.30;99.90;;;;;;5022271;28;20045;-72
2023/08/25 03:10:02;;;;;;;67.03;41.63;;;18.30;99.90;;;;;;5005564;28;20079;-71
2023/08/25 03:12:28;;;;;;;71.30;41.97;;;18.30;99.90;;;;;;5030776;28;20041;-71
2023/08/25 03:14:54;;;;;;;61.90;39.57;;;18.30;99.90;;;;;;5048711;28;20033;-71
2023/08/25 03:17:20;;;;;;;74.10;44.53;;;18.40;99.90;;;;;;5028708;28;20131;-71
2023/08/25 03:19:46;;;;;;;69.60;43.93;;;18.40;99.90;;;;;;5029123;28;20053;-71
2023/08/25 03:22:11;;;;;;;63.87;40.00;;;18.40;99.90;;;;;;5023926;28;20048;-71
2023/08/25 03:24:37;;;;;;;65.10;42.67;;;18.40;99.90;;;;;;5031240;28;20105;-72
2023/08/25 03:27:03;;;;;;;63.17;40.93;;;18.40;99.90;;;;;;5024937;28;20037;-71
2023/08/25 03:29:31;;;;;;;65.73;40.77;;;18.40;99.90;;;;;;5021016;28;20041;-71
2023/08/25 03:31:57;;;;;;;60.07;38.67;;;18.40;99.90;;;;;;5025503;28;20193;-72
2023/08/25 03:34:22;;;;;;;68.90;42.37;;;18.40;99.90;;;;;;5023943;28;20131;-72
2023/08/25 03:36:48;;;;;;;63.80;40.50;;;18.40;99.90;;;;;;5008678;28;20068;-71
2023/08/25 03:39:14;;;;;;;69.60;41.63;;;18.40;99.90;;;;;;5028258;28;20043;-72
2023/08/25 03:41:39;;;;;;;66.67;42.60;;;18.50;99.90;;;;;;5030589;28;20115;-71
2023/08/25 03:44:05;;;;;;;74.13;46.47;;;18.50;99.90;;;;;;5025154;28;20114;-71
2023/08/25 03:46:33;;;;;;;80.00;48.60;;;18.50;99.90;;;;;;5025275;28;20044;-71
2023/08/25 03:48:59;;;;;;;72.43;43.60;;;18.50;99.90;;;;;;5012755;28;20052;-71
2023/08/25 03:51:25;;;;;;;76.03;45.30;;;18.50;99.90;;;;;;5027351;28;20448;-72
2023/08/25 03:53:51;;;;;;;76.40;46.37;;;18.50;99.90;;;;;;5026965;28;20033;-72
2023/08/25 03:56:17;;;;;;;81.10;47.83;;;18.60;99.90;;;;;;5021484;28;20064;-71
2023/08/25 03:58:43;;;;;;;88.20;49.60;;;18.60;99.90;;;;;;5027947;28;20044;-71
2023/08/25 04:01:08;;;;;;;91.80;49.53;;;18.60;99.90;;;;;;5023812;28;20449;-72
2023/08/25 04:03:34;;;;;;;83.03;48.00;;;18.60;99.90;;;;;;5012605;28;20382;-72
2023/08/25 04:06:01;;;;;;;88.93;51.10;;;18.70;99.90;;;;;;5016615;28;20037;-71
2023/08/25 04:08:26;;;;;;;93.13;49.93;;;18.70;99.90;;;;;;5019079;28;20036;-71
2023/08/25 04:10:52;;;;;;;85.20;48.93;;;18.70;99.90;;;;;;5016629;28;20559;-71
2023/08/25 04:13:19;;;;;;;77.20;46.17;;;18.70;99.90;;;;;;5007092;28;20045;-71
2023/08/25 04:15:44;;;;;;;84.63;51.43;;;18.70;99.90;;;;;;5027298;28;20043;-72
2023/08/25 04:18:10;;;;;;;87.50;51.27;;;18.70;99.90;;;;;;5029787;28;20033;-72
2023/08/25 04:20:36;;;;;;;82.07;48.97;;;18.70;99.90;;;;;;5028446;28;20486;-72
2023/08/25 04:23:02;;;;;;;86.53;49.60;;;18.70;99.90;;;;;;5028391;28;20037;-72
2023/08/25 04:25:29;;;;;;;91.90;50.37;;;18.70;99.90;;;;;;5029559;28;20037;-72
2023/08/25 04:27:56;;;;;;;85.60;48.60;;;18.70;99.90;;;;;;5029581;28;20076;-71
2023/08/25 04:30:25;;;;;;;82.73;48.90;;;18.70;99.90;;;;;;5023116;28;20045;-71
2023/08/25 04:32:52;;;;;;;85.97;49.53;;;18.70;99.90;;;;;;5023732;28;20497;-71
2023/08/25 04:35:18;;;;;;;96.97;53.10;;;18.70;99.90;;;;;;5021326;28;20498;-72
2023/08/25 04:37:47;;;;;;;88.83;50.60;;;18.70;99.90;;;;;;5023914;28;20497;-72
2023/08/25 04:40:14;;;;;;;78.23;48.27;;;18.70;99.90;;;;;;5020881;28;20507;-72
2023/08/25 04:42:41;;;;;;;79.83;47.73;;;18.70;99.90;;;;;;5026144;28;20140;-71
2023/08/25 04:45:08;;;;;;;89.47;53.63;;;18.70;99.90;;;;;;5009576;28;20052;-71
2023/08/25 04:47:34;;;;;;;85.77;50.93;;;18.70;99.90;;;;;;5019793;28;20077;-71
2023/08/25 04:50:03;;;;;;;89.60;51.53;;;18.70;99.90;;;;;;5022027;28;20100;-71
2023/08/25 04:52:29;;;;;;;87.57;49.73;;;18.70;99.90;;;;;;5023331;28;20049;-72
2023/08/25 04:54:55;;;;;;;82.00;49.10;;;18.70;99.90;;;;;;5028751;28;20043;-72
2023/08/25 04:57:21;;;;;;;98.17;54.17;;;18.70;99.90;;;;;;5019951;28;20038;-72
2023/08/25 04:59:46;;;;;;;92.60;52.53;;;18.70;99.90;;;;;;5028827;28;20486;-72
2023/08/25 05:02:13;;;;;;;84.73;52.07;;;18.70;99.90;;;;;;5019411;28;20516;-72
2023/08/25 05:04:38;;;;;;;100.40;56.53;;;18.70;99.90;;;;;;5026974;28;20143;-72
2023/08/25 05:07:04;;;;;;;88.17;53.20;;;18.70;99.90;;;;;;5028071;28;20128;-72
2023/08/25 05:09:30;;;;;;;91.97;54.63;;;18.70;99.90;;;;;;5027935;28;20088;-72
2023/08/25 05:11:55;;;;;;;86.67;51.43;;;18.70;99.90;;;;;;5025581;28;20041;-72
2023/08/25 05:14:21;;;;;;;84.07;52.17;;;18.80;99.90;;;;;;5012198;28;20053;-72
2023/08/25 05:16:47;;;;;;;79.63;47.17;;;18.80;99.90;;;;;;5012641;28;20029;-72
2023/08/25 05:19:13;;;;;;;81.23;45.93;;;18.80;99.90;;;;;;5028878;28;20611;-72
2023/08/25 05:21:40;;;;;;;72.97;44.73;;;18.80;99.90;;;;;;5029511;28;20408;-71
2023/08/25 05:24:23;;;;;;;79.83;47.73;;;18.80;99.90;;;;;;5028960;28;20037;-71
2023/08/25 05:26:53;;;;;;;77.00;48.00;;;18.80;99.90;;;;;;5028871;28;20045;-71
2023/08/25 05:29:25;;;;;;;76.83;47.33;;;18.80;99.90;;;;;;5025581;28;20044;-71
2023/08/25 05:31:51;;;;;;;71.33;44.80;;;18.80;99.90;;;;;;5030500;28;20076;-71
2023/08/25 05:34:17;;;;;;;74.93;45.87;;;18.90;99.90;;;;;;5016664;28;20393;-71
2023/08/25 05:36:43;;;;;;;76.20;46.53;;;18.90;99.90;;;;;;5021586;28;20131;-71
2023/08/25 05:39:09;;;;;;;74.63;47.70;;;18.90;99.90;;;;;;5029127;28;20049;-71
2023/08/25 05:41:35;;;;;;;72.20;45.13;;;18.90;99.90;;;;;;5030602;28;20085;-71
2023/08/25 05:44:01;;;;;;;72.63;45.70;;;18.90;99.90;;;;;;5027579;28;20044;-71
2023/08/25 05:46:29;;;;;;;75.07;45.93;;;19.00;99.90;;;;;;5020341;28;20103;-71
2023/08/25 05:48:55;;;;;;;67.47;45.13;;;19.00;99.90;;;;;;5027202;28;20041;-71
2023/08/25 05:51:20;;;;;;;69.83;44.30;;;19.00;99.90;;;;;;5023523;28;20045;-71
2023/08/25 05:53:46;;;;;;;79.00;46.50;;;19.10;99.90;;;;;;5028296;28;20033;-71
2023/08/25 05:56:12;;;;;;;68.67;45.83;;;19.10;99.90;;;;;;5008091;28;20040;-71
2023/08/25 05:58:37;;;;;;;69.00;42.93;;;19.10;99.90;;;;;;5031380;28;20120;-71
2023/08/25 06:01:03;;;;;;;68.17;44.27;;;19.10;99.90;;;;;;5019201;28;20477;-71
2023/08/25 06:03:29;;;;;;;58.93;41.73;;;19.20;99.90;;;;;;5026308;28;20117;-71
2023/08/25 06:05:54;;;;;;;62.87;42.73;;;19.20;99.90;;;;;;5008653;28;20191;-71
2023/08/25 06:08:20;;;;;;;65.60;42.87;;;19.20;99.90;;;;;;5032070;28;20036;-72
2023/08/25 06:10:47;;;;;;;61.13;40.93;;;19.20;99.90;;;;;;5020740;28;20076;-72
2023/08/25 06:13:13;;;;;;;55.27;38.37;;;19.30;99.90;;;;;;5027673;28;20393;-72
2023/08/25 06:15:39;;;;;;;58.13;40.53;;;19.30;99.90;;;;;;5028336;28;20041;-72
2023/08/25 06:18:05;;;;;;;58.03;40.00;;;19.30;99.90;;;;;;5031496;28;20116;-72
2023/08/25 06:20:31;;;;;;;54.07;37.83;;;19.40;99.90;;;;;;5025634;28;20176;-71
2023/08/25 06:22:57;;;;;;;53.73;37.60;;;19.40;99.90;;;;;;5032128;28;20103;-71
2023/08/25 06:25:23;;;;;;;50.27;36.13;;;19.50;99.90;;;;;;5032746;28;20493;-71
2023/08/25 06:27:49;;;;;;;49.80;35.57;;;19.50;99.90;;;;;;5028103;28;20103;-71
2023/08/25 06:30:16;;;;;;;49.23;34.37;;;19.60;99.90;;;;;;5027258;28;20033;-71
2023/08/25 06:32:42;;;;;;;48.97;34.53;;;19.70;99.90;;;;;;5025024;28;20137;-71
2023/08/25 06:35:08;;;;;;;43.27;33.13;;;19.80;99.90;;;;;;5030169;28;20460;-71
2023/08/25 06:37:34;;;;;;;41.53;31.10;;;19.80;99.90;;;;;;5023554;28;20049;-71
2023/08/25 06:40:05;;;;;;;43.57;29.60;;;19.80;99.90;;;;;;5029920;28;20045;-71
2023/08/25 06:42:31;;;;;;;39.10;29.70;;;19.80;99.90;;;;;;5030916;28;20044;-71
2023/08/25 06:44:57;;;;;;;30.23;25.33;;;19.80;99.90;;;;;;5030268;28;20047;-71
2023/08/25 06:47:24;;;;;;;42.03;29.87;;;19.90;99.90;;;;;;5028288;28;20048;-71
2023/08/25 06:49:49;;;;;;;34.10;25.97;;;19.90;99.90;;;;;;5031109;28;20044;-71
2023/08/25 06:52:15;;;;;;;36.27;25.63;;;20.00;99.90;;;;;;5027430;28;20505;-72
2023/08/25 06:54:41;;;;;;;33.57;26.00;;;20.10;99.90;;;;;;5010904;28;20040;-72
2023/08/25 06:57:07;;;;;;;32.73;25.20;;;20.10;99.90;;;;;;5028827;28;20029;-72
2023/08/25 06:59:33;;;;;;;30.40;21.80;;;20.00;99.90;;;;;;5024675;28;20045;-72
2023/08/25 07:01:58;;;;;;;32.67;23.63;;;20.00;99.90;;;;;;5028130;28;20055;-72
2023/08/25 07:04:25;;;;;;;30.73;24.13;;;20.00;99.90;;;;;;5020527;28;20045;-72
2023/08/25 07:06:50;;;;;;;27.47;21.13;;;20.00;99.90;;;;;;5033365;28;20048;-71
2023/08/25 07:09:17;;;;;;;26.87;20.60;;;20.00;99.90;;;;;;5023488;28;20037;-72
2023/08/25 07:11:43;;;;;;;30.00;21.77;;;20.00;99.90;;;;;;5029089;28;21215;-72
2023/08/25 07:14:09;;;;;;;27.13;21.73;;;20.00;99.90;;;;;;5014492;28;20048;-72
2023/08/25 07:16:35;;;;;;;28.70;21.27;;;20.00;99.90;;;;;;5035391;28;20068;-72
2023/08/25 07:19:00;;;;;;;26.90;20.13;;;20.00;99.90;;;;;;5027226;28;20041;-71
2023/08/25 07:21:26;;;;;;;29.70;21.87;;;20.00;99.90;;;;;;5031931;28;20041;-71
2023/08/25 07:23:52;;;;;;;28.17;20.67;;;20.10;99.90;;;;;;5014748;28;20078;-71
2023/08/25 07:26:18;;;;;;;25.97;19.97;;;20.20;99.90;;;;;;5035759;28;20045;-72
2023/08/25 07:28:43;;;;;;;27.90;19.50;;;20.20;99.90;;;;;;5024812;28;20049;-72
2023/08/25 07:31:09;;;;;;;26.40;19.20;;;20.30;99.90;;;;;;5022284;28;20132;-72
2023/08/25 07:33:35;;;;;;;26.43;17.37;;;20.40;99.70;;;;;;5022314;28;20052;-72
2023/08/25 07:36:03;;;;;;;24.17;16.83;;;20.40;98.40;;;;;;5035572;28;20179;-72
2023/08/25 07:38:29;;;;;;;26.07;17.17;;;20.40;98.50;;;;;;5026181;28;20049;-72
2023/08/25 07:40:56;;;;;;;22.00;16.30;;;20.50;98.30;;;;;;5026466;28;20170;-72
2023/08/25 07:43:22;;;;;;;22.83;15.93;;;20.50;98.30;;;;;;5013891;28;20041;-72
2023/08/25 07:45:48;;;;;;;24.37;17.47;;;20.60;98.20;;;;;;5029689;28;20040;-71
2023/08/25 07:48:14;;;;;;;22.70;16.93;;;20.60;98.30;;;;;;5021844;28;20375;-71
2023/08/25 07:50:40;;;;;;;23.37;16.70;;;20.70;97.80;;;;;;5027668;28;20044;-71
2023/08/25 07:53:06;;;;;;;19.77;15.67;;;20.70;97.20;;;;;;5026403;28;20041;-71
2023/08/25 07:55:32;;;;;;;21.53;15.73;;;20.80;97.00;;;;;;5029778;28;20043;-71
2023/08/25 07:57:58;;;;;;;21.27;15.00;;;20.80;96.30;;;;;;5026521;28;20056;-71
2023/08/25 08:00:26;;;;;;;21.03;15.57;;;20.90;96.30;;;;;;5028032;28;20045;-71
2023/08/25 08:02:52;;;;;;;21.13;16.30;;;20.90;96.10;;;;;;5001229;28;20129;-71
2023/08/25 08:05:18;;;;;;;20.30;15.97;;;21.00;96.50;;;;;;5021981;28;20057;-71
2023/08/25 08:07:47;;;;;;;22.00;15.70;;;21.10;95.60;;;;;;5023073;28;20041;-71
2023/08/25 08:10:13;;;;;;;25.70;16.57;;;21.10;95.30;;;;;;5018147;28;20075;-71
2023/08/25 08:12:39;;;;;;;18.67;15.73;;;21.20;94.90;;;;;;5019332;28;20106;-71
2023/08/25 08:15:06;;;;;;;23.40;16.53;;;21.20;94.50;;;;;;5027846;28;20033;-71
2023/08/25 08:17:32;;;;;;;19.60;15.77;;;21.30;94.10;;;;;;5022770;28;20424;-71
2023/08/25 08:19:58;;;;;;;20.77;15.17;;;21.30;94.10;;;;;;5018231;28;20047;-71
2023/08/25 08:22:23;;;;;;;20.30;16.30;;;21.30;93.80;;;;;;5029934;28;20497;-71
2023/08/25 08:24:50;;;;;;;22.93;17.20;;;21.40;93.80;;;;;;5023240;28;20147;-71
2023/08/25 08:27:17;;;;;;;22.80;16.13;;;21.40;93.50;;;;;;5028092;28;20102;-71
2023/08/25 08:29:43;;;;;;;22.20;15.90;;;21.40;93.10;;;;;;5019028;28;20053;-71
2023/08/25 08:32:09;;;;;;;23.33;18.10;;;21.40;93.00;;;;;;5008804;28;20060;-71
2023/08/25 08:34:35;;;;;;;20.53;16.20;;;21.40;92.40;;;;;;5023805;28;20126;-71
2023/08/25 08:37:04;;;;;;;23.03;17.03;;;21.50;92.40;;;;;;5020664;28;20035;-71
2023/08/25 08:39:30;;;;;;;20.90;17.03;;;21.50;92.00;;;;;;5010719;28;20037;-72
2023/08/25 08:41:56;;;;;;;22.63;16.23;;;21.60;91.80;;;;;;5023789;28;20040;-72
2023/08/25 08:44:22;;;;;;;21.73;18.60;;;21.50;91.10;;;;;;5019998;28;20127;-71
2023/08/25 08:46:50;;;;;;;21.97;17.77;;;21.60;91.40;;;;;;5025281;28;20040;-72
2023/08/25 08:49:16;;;;;;;22.37;16.70;;;21.60;91.10;;;;;;5020356;28;20108;-72
2023/08/25 08:51:43;;;;;;;20.37;16.43;;;21.60;91.60;;;;;;5011408;28;20048;-72
2023/08/25 08:54:09;;;;;;;22.80;15.90;;;21.80;91.00;;;;;;5019894;28;20045;-72
2023/08/25 08:56:35;;;;;;;21.90;15.13;;;22.00;90.20;;;;;;5025357;28;20520;-72
2023/08/25 08:59:04;;;;;;;22.53;16.27;;;22.20;89.60;;;;;;5017733;28;20041;-72
2023/08/25 09:01:31;;;;;;;21.57;15.57;;;22.30;89.00;;;;;;5019310;28;20045;-72
2023/08/25 09:04:00;;;;;;;17.80;14.53;;;22.40;88.20;;;;;;5026973;28;20045;-72
2023/08/25 09:06:33;;;;;;;21.87;16.17;;;22.50;88.00;;;;;;5027309;28;20082;-71
2023/08/25 09:09:04;;;;;;;23.07;15.87;;;22.60;87.00;;;;;;5026633;28;20056;-71
2023/08/25 09:11:31;;;;;;;22.33;16.93;;;22.60;86.80;;;;;;5040641;28;20037;-72
2023/08/25 09:14:03;;;;;;;21.33;16.03;;;22.60;86.60;;;;;;5033247;28;20052;-72
2023/08/25 09:16:34;;;;;;;22.27;15.63;;;22.60;83.80;;;;;;5029655;28;20120;-71
2023/08/25 09:19:02;;;;;;;20.90;15.97;;;22.60;85.40;;;;;;5031794;28;20080;-71
2023/08/25 09:21:28;;;;;;;23.73;17.37;;;22.70;83.60;;;;;;5031328;28;20064;-71
2023/08/25 09:24:02;;;;;;;22.47;16.40;;;22.90;84.10;;;;;;5029124;28;20048;-72
2023/08/25 09:26:29;;;;;;;21.15;17.17;;;23.00;83.80;;;;;;5048144;28;20110;-71
2023/08/25 09:28:58;;;;;;;22.13;16.70;;;23.20;84.20;;;;;;5030793;28;20422;-71
2023/08/25 09:31:25;;;;;;;25.50;18.10;;;23.40;83.50;;;;;;5004584;28;20545;-72
2023/08/25 09:33:57;;;;;;;22.83;17.83;;;23.60;83.00;;;;;;5031491;28;20029;-72
2023/08/25 09:36:23;;;;;;;25.87;18.33;;;23.90;82.90;;;;;;5031259;28;20041;-72
2023/08/25 09:38:49;;;;;;;29.13;18.83;;;24.10;82.60;;;;;;5044966;28;20055;-71
2023/08/25 09:41:28;;;;;;;24.80;18.27;;;24.20;81.10;;;;;;4994098;28;20069;-71
2023/08/25 09:44:02;;;;;;;27.30;19.47;;;24.20;80.20;;;;;;5009458;28;20042;-72
2023/08/25 09:46:30;;;;;;;24.93;18.40;;;24.20;80.30;;;;;;5010034;28;20120;-72
2023/08/25 09:49:07;;;;;;;24.83;18.00;;;24.20;79.80;;;;;;5000045;28;20079;-72
2023/08/25 09:51:54;;;;;;;26.30;19.30;;;24.30;80.10;;;;;;5024391;28;20089;-72
2023/08/25 09:54:19;;;;;;;24.20;18.20;;;24.40;80.10;;;;;;5004023;28;20143;-72
2023/08/25 09:56:47;;;;;;;23.10;18.57;;;24.50;80.00;;;;;;5008994;28;20113;-72
2023/08/25 09:59:14;;;;;;;25.53;19.13;;;24.60;80.10;;;;;;5010785;28;20890;-72
2023/08/25 10:01:43;;;;;;;26.50;18.97;;;24.70;78.80;;;;;;5006512;28;20055;-72
2023/08/25 10:04:09;;;;;;;26.97;19.03;;;24.80;77.40;;;;;;5003568;28;20033;-72
2023/08/25 10:06:39;;;;;;;25.70;18.40;;;24.90;77.10;;;;;;5004752;28;20055;-72
2023/08/25 10:09:07;;;;;;;28.73;19.90;;;24.90;76.80;;;;;;5003546;28;20502;-72
2023/08/25 10:11:40;;;;;;;26.93;19.80;;;24.90;77.50;;;;;;5006772;28;20049;-72
2023/08/25 10:14:10;;;;;;;28.45;19.77;;;25.00;77.00;;;;;;5003223;28;20049;-72
2023/08/25 10:16:45;;;;;;;28.90;20.17;;;25.10;77.00;;;;;;5009629;28;20033;-72
2023/08/25 10:19:14;;;;;;;29.83;21.33;;;25.30;76.80;;;;;;5007231;28;20402;-72
2023/08/25 10:21:44;;;;;;;28.80;22.13;;;25.30;74.90;;;;;;4991160;28;20111;-72
2023/08/25 10:24:10;;;;;;;33.37;21.63;;;25.40;75.70;;;;;;5016175;28;20091;-72
2023/08/25 10:26:36;;;;;;;27.90;21.83;;;25.60;74.60;;;;;;5006518;28;20049;-72
2023/08/25 10:29:03;;;;;;;34.17;23.20;;;25.70;74.70;;;;;;5005792;28;20045;-72
2023/08/25 10:31:30;;;;;;;26.73;20.20;;;25.90;74.60;;;;;;5011887;28;20041;-72
2023/08/25 10:33:56;;;;;;;26.30;21.10;;;26.10;74.30;;;;;;5011884;28;20045;-72
2023/08/25 10:36:23;;;;;;;29.50;22.80;;;26.20;74.30;;;;;;5015048;28;20049;-72
2023/08/25 10:38:54;;;;;;;29.77;21.83;;;26.20;72.30;;;;;;5038909;28;20056;-72
2023/08/25 10:41:23;;;;;;;30.77;20.97;;;26.10;72.40;;;;;;5005357;28;20490;-72
2023/08/25 10:43:53;;;;;;;27.83;21.70;;;26.00;72.80;;;;;;5007384;28;20073;-72
2023/08/25 10:46:29;;;;;;;29.30;21.67;;;26.00;72.20;;;;;;4994480;28;20040;-72
2023/08/25 10:49:06;;;;;;;29.33;22.17;;;26.10;72.10;;;;;;5012555;28;20037;-71
2023/08/25 10:51:36;;;;;;;31.00;22.03;;;26.00;72.50;;;;;;5015121;28;20073;-71
2023/08/25 10:54:02;;;;;;;28.30;22.20;;;26.00;72.70;;;;;;5012375;28;20049;-71
2023/08/25 10:56:28;;;;;;;27.17;20.60;;;26.10;72.30;;;;;;4992683;28;20513;-71
2023/08/25 10:58:55;;;;;;;31.53;23.40;;;26.20;73.20;;;;;;5010614;28;20037;-71
2023/08/25 11:01:38;;;;;;;26.33;20.70;;;26.30;70.40;;;;;;4995591;28;20041;-71
2023/08/25 11:04:12;;;;;;;25.57;20.07;;;26.30;71.60;;;;;;5007753;28;20113;-71
2023/08/25 11:06:47;;;;;;;26.02;20.27;;;26.40;71.50;;;;;;5007019;28;20038;-71
2023/08/25 11:09:18;;;;;;;;;;;26.50;71.80;;;;;;5010812;28;20053;-71
2023/08/25 11:11:45;;;;;;;27.63;18.33;;;26.60;69.80;;;;;;5010855;28;19917;-71
2023/08/25 11:14:14;;;;;;;28.97;20.10;;;26.50;71.40;;;;;;5011352;28;20029;-71
2023/08/25 11:16:41;;;;;;;27.33;21.57;;;26.40;70.70;;;;;;5043955;28;20123;-71
2023/08/25 11:19:11;;;;;;;28.07;20.40;;;26.30;70.00;;;;;;5002654;28;20557;-71
2023/08/25 11:21:37;;;;;;;27.23;21.63;;;26.10;69.90;;;;;;5019257;28;20595;-71
2023/08/25 11:24:02;;;;;;;23.93;18.63;;;25.90;70.10;;;;;;5007793;28;20140;-71
2023/08/25 11:26:28;;;;;;;26.47;19.37;;;25.70;70.70;;;;;;5007141;28;20605;-71
2023/08/25 11:28:54;;;;;;;29.53;20.70;;;25.60;71.00;;;;;;5005440;28;20509;-71
2023/08/25 11:31:21;;;;;;;28.43;21.27;;;25.50;71.60;;;;;;4991259;28;20789;-71
2023/08/25 11:33:48;;;;;;;26.13;19.57;;;25.40;71.20;;;;;;5005477;28;20041;-71
2023/08/25 11:36:17;;;;;;;24.00;19.80;;;25.20;71.90;;;;;;4990278;28;20030;-71
2023/08/25 11:38:48;;;;;;;23.20;18.57;;;25.10;72.10;;;;;;5014205;28;20151;-71
2023/08/25 11:41:15;;;;;;;29.33;19.83;;;25.00;71.70;;;;;;5025980;28;20726;-71
2023/08/25 11:43:41;;;;;;;25.70;19.40;;;24.70;71.80;;;;;;5025864;28;20351;-71
2023/08/25 11:46:07;;;;;;;24.80;18.13;;;24.40;72.30;;;;;;5026401;28;20045;-71
2023/08/25 11:48:33;;;;;;;26.60;18.03;;;24.10;73.00;;;;;;5026017;28;20143;-71
2023/08/25 11:51:00;;;;;;;27.63;17.73;;;23.80;73.80;;;;;;5021381;28;20124;-71
2023/08/25 11:53:25;;;;;;;25.67;18.00;;;23.50;75.00;;;;;;5026328;28;20033;-71
2023/08/25 11:56:05;;;;;;;26.47;17.77;;;23.30;75.40;;;;;;5028710;28;20090;-71
2023/08/25 11:58:34;;;;;;;27.90;17.83;;;23.10;76.10;;;;;;5023546;28;20550;-71
2023/08/25 12:01:10;;;;;;;29.37;20.07;;;22.90;76.90;;;;;;5025865;28;20516;-71
2023/08/25 12:03:38;;;;;;;28.23;19.33;;;22.80;77.90;;;;;;5005223;28;20070;-71
2023/08/25 12:06:08;;;;;;;26.67;19.13;;;22.80;78.40;;;;;;5030532;28;20456;-71
2023/08/25 12:08:34;;;;;;;29.10;18.30;;;22.80;78.50;;;;;;5011556;28;20036;-71
2023/08/25 12:11:01;;;;;;;25.40;18.30;;;22.90;78.80;;;;;;5028468;28;20067;-71
2023/08/25 12:13:29;;;;;;;31.93;19.73;;;22.90;78.70;;;;;;5008745;28;20448;-71
2023/08/25 12:15:55;;;;;;;29.10;18.77;;;22.90;79.40;;;;;;5027238;28;20045;-71
2023/08/25 12:18:22;;;;;;;31.73;22.50;;;23.00;79.10;;;;;;5028935;28;20494;-71
2023/08/25 12:20:49;;;;;;;27.63;18.77;;;23.00;79.30;;;;;;5026280;28;20053;-71
2023/08/25 12:23:15;;;;;;;25.63;17.67;;;23.10;79.30;;;;;;5011749;28;20064;-71
2023/08/25 12:25:42;;;;;;;21.87;17.23;;;23.10;79.20;;;;;;5031897;28;20549;-71
2023/08/25 12:28:09;;;;;;;26.20;17.80;;;23.10;78.60;;;;;;5006692;28;20037;-71